Brunswick, Minnesota
Current Conditions -  °F | °C
As of 4:46 AM on Saturday 22 Nov 2014 (Local Time) from K04W Reporting Station
Clear Clear  
Wind Chill: 30°   Ceiling: Unl
Heat Index: 30°   Visibility: 7mi
Dew Point: 28°   Wind: 0mph
Humidity: 93%   Direction: NA
Pressure: 29.74"   Gusts: NA
Location:  45.9652°N, 93.2874°W
Report Text: K04W 221046Z AUTO 00000KT 7SM CLR M01/M02 A2974 RMK AO2
Loading
Personal Weather Stations






























Interactive Weather Map New forecast layout! Learn more

10-Day Weather Forecast

Advertisements
Track Severe Weather on mobile